Time;durP1;ratioP1;P1;durP2;ratioP2;P2;SDS_P1;SDS_P2;PMS_P1;PMS_P2;Temp;Humidity;BMP_temperature;BMP_pressure;BME280_temperature;BME280_humidity;BME280_pressure;Samples;Min_cycle;Max_cycle;Signal;HPM_P1;HPM_P2
2022/04/02 00:00:39;;;;;;;57.50;10.43;;;;;;;0.99;100.00;96756.66;4984947;28;20072;-56
2022/04/02 00:03:05;;;;;;;36.28;9.60;;;;;;;0.89;100.00;96750.91;4989046;28;20148;-55
2022/04/02 00:05:31;;;;;;;61.88;10.30;;;;;;;1.47;100.00;96751.22;4982720;28;20043;-56
2022/04/02 00:07:56;;;;;;;52.30;9.57;;;;;;;0.89;100.00;96750.91;4984219;28;20075;-56
2022/04/02 00:10:22;;;;;;;49.83;9.20;;;;;;;0.69;100.00;96752.16;4985253;28;20126;-55
2022/04/02 00:12:47;;;;;;;65.03;10.52;;;;;;;0.90;100.00;96753.44;4985776;28;20034;-55
2022/04/02 00:15:13;;;;;;;46.03;9.70;;;;;;;1.07;100.00;96750.47;4991338;28;20038;-56
2022/04/02 00:17:38;;;;;;;52.33;8.50;;;;;;;0.72;100.00;96753.84;4988787;28;20050;-56
2022/04/02 00:20:04;;;;;;;52.17;10.45;;;;;;;0.72;100.00;96758.97;4990964;28;20185;-55
2022/04/02 00:22:30;;;;;;;46.75;9.82;;;;;;;0.75;100.00;96752.06;4986152;28;20041;-54
2022/04/02 00:24:56;;;;;;;73.20;11.23;;;;;;;0.87;100.00;96747.53;4984640;28;20077;-57
2022/04/02 00:27:21;;;;;;;68.47;8.15;;;;;;;0.77;100.00;96752.00;4981232;28;20034;-55
2022/04/02 00:29:46;;;;;;;68.53;9.52;;;;;;;0.62;100.00;96749.78;4989498;28;20373;-55
2022/04/02 00:32:12;;;;;;;61.97;9.57;;;;;;;0.54;100.00;96750.78;4986524;28;20048;-55
2022/04/02 00:34:38;;;;;;;54.58;8.65;;;;;;;0.58;100.00;96756.69;4991230;28;20086;-55
2022/04/02 00:37:04;;;;;;;64.32;8.60;;;;;;;0.55;100.00;96760.19;4988922;28;20077;-55
2022/04/02 00:39:30;;;;;;;71.65;9.32;;;;;;;0.37;100.00;96758.84;4989495;28;20112;-55
2022/04/02 00:41:56;;;;;;;58.80;8.20;;;;;;;0.64;100.00;96755.72;4986588;28;20042;-54
2022/04/02 00:44:24;;;;;;;61.20;8.80;;;;;;;0.55;100.00;96757.63;4986753;28;20030;-55
2022/04/02 00:46:49;;;;;;;58.50;7.97;;;;;;;0.64;100.00;96760.84;4985639;28;20037;-55
2022/04/02 00:49:15;;;;;;;58.15;7.53;;;;;;;0.52;100.00;96754.25;4987687;28;20039;-56
2022/04/02 00:51:41;;;;;;;71.55;7.43;;;;;;;0.70;100.00;96761.56;4985633;28;20039;-55
2022/04/02 00:54:14;;;;;;;79.97;8.65;;;;;;;0.76;100.00;96760.59;4986438;28;20037;-55
2022/04/02 00:56:40;;;;;;;60.75;7.63;;;;;;;0.48;100.00;96762.88;4986528;28;20046;-55
2022/04/02 00:59:06;;;;;;;67.57;7.43;;;;;;;0.57;100.00;96768.69;4990818;28;20069;-55
2022/04/02 01:01:31;;;;;;;62.97;6.85;;;;;;;0.52;100.00;96773.06;4988542;28;20038;-55
2022/04/02 01:04:00;;;;;;;69.95;7.72;;;;;;;0.68;100.00;96773.59;4987555;28;20096;-56
2022/04/02 01:06:27;;;;;;;83.38;7.10;;;;;;;0.62;100.00;96783.13;4987589;28;20037;-56
2022/04/02 01:08:52;;;;;;;63.30;6.60;;;;;;;0.52;100.00;96773.06;4993155;28;20155;-55
2022/04/02 01:11:18;;;;;;;64.18;6.82;;;;;;;0.58;100.00;96778.06;4992616;28;20511;-56
2022/04/02 01:13:43;;;;;;;51.92;6.20;;;;;;;0.52;100.00;96788.44;4992832;28;20049;-56
2022/04/02 01:16:08;;;;;;;65.32;7.72;;;;;;;0.58;100.00;96783.19;4992251;28;20034;-56
2022/04/02 01:18:34;;;;;;;68.55;7.38;;;;;;;0.93;100.00;96779.00;4989243;28;20432;-56
2022/04/02 01:20:59;;;;;;;78.15;7.68;;;;;;;0.88;100.00;96785.13;4992050;28;20061;-56
2022/04/02 01:23:29;;;;;;;72.82;7.72;;;;;;;0.98;100.00;96785.78;4991987;28;20443;-54
2022/04/02 01:25:56;;;;;;;65.55;7.90;;;;;;;1.00;100.00;96789.16;4987026;28;20054;-56
2022/04/02 01:28:22;;;;;;;55.88;7.90;;;;;;;1.13;100.00;96788.84;4990619;28;20081;-55
2022/04/02 01:30:48;;;;;;;59.33;8.40;;;;;;;0.92;100.00;96792.75;4991257;28;20409;-55
2022/04/02 01:33:13;;;;;;;84.53;10.45;;;;;;;0.95;100.00;96792.66;4989861;28;20472;-56
2022/04/02 01:35:38;;;;;;;66.65;9.63;;;;;;;1.07;100.00;96795.84;4987192;28;20037;-56
2022/04/02 01:38:04;;;;;;;56.88;9.25;;;;;;;1.17;100.00;96797.31;4987704;28;20805;-55
2022/04/02 01:40:29;;;;;;;66.68;9.82;;;;;;;1.22;100.00;96794.66;4988454;28;20042;-56
2022/04/02 01:42:54;;;;;;;65.32;10.15;;;;;;;1.16;100.00;96793.06;4988798;28;20038;-56
2022/04/02 01:45:20;;;;;;;65.28;9.88;;;;;;;1.00;100.00;96804.56;4988799;28;20126;-55
2022/04/02 01:47:46;;;;;;;70.15;10.48;;;;;;;1.11;100.00;96807.75;4991086;28;20481;-56
2022/04/02 01:50:12;;;;;;;79.40;10.13;;;;;;;0.84;100.00;96796.34;4992775;28;20387;-55
2022/04/02 01:52:37;;;;;;;73.25;9.07;;;;;;;0.65;100.00;96801.88;4990234;28;20026;-56
2022/04/02 01:55:03;;;;;;;65.03;9.68;;;;;;;1.02;100.00;96800.25;4988241;28;20033;-57
2022/04/02 01:57:28;;;;;;;59.03;9.23;;;;;;;1.10;100.00;96803.47;4989061;28;20033;-57
2022/04/02 01:59:54;;;;;;;83.47;10.00;;;;;;;1.01;100.00;96806.25;4991480;28;20249;-55
2022/04/02 02:02:22;;;;;;;74.20;9.63;;;;;;;1.18;100.00;96806.72;4989854;28;21292;-56
2022/04/02 02:04:48;;;;;;;96.95;10.00;;;;;;;1.14;100.00;96810.25;4992065;28;20050;-55
2022/04/02 02:07:13;;;;;;;50.28;7.93;;;;;;;1.00;100.00;96809.72;4988489;28;20125;-56
2022/04/02 02:09:38;;;;;;;59.83;8.10;;;;;;;0.77;100.00;96805.88;4991863;28;20117;-55
2022/04/02 02:12:04;;;;;;;78.90;8.30;;;;;;;0.96;100.00;96811.50;4989854;28;20045;-56
2022/04/02 02:14:30;;;;;;;71.00;8.05;;;;;;;0.86;100.00;96813.41;4990510;28;20033;-56
2022/04/02 02:16:56;;;;;;;63.40;7.20;;;;;;;0.81;100.00;96809.25;4990797;28;20042;-56
2022/04/02 02:19:22;;;;;;;54.13;6.65;;;;;;;0.80;100.00;96813.53;4992129;28;20026;-55
2022/04/02 02:21:47;;;;;;;67.63;7.03;;;;;;;0.99;100.00;96818.28;4990842;28;20039;-56
2022/04/02 02:24:12;;;;;;;77.82;7.40;;;;;;;1.03;100.00;96819.88;4991737;28;20030;-55
2022/04/02 02:26:38;;;;;;;75.20;7.60;;;;;;;0.70;100.00;96815.47;4991227;28;20109;-54
2022/04/02 02:29:06;;;;;;;79.03;7.63;;;;;;;0.71;100.00;96818.88;4988860;28;20118;-55
2022/04/02 02:31:34;;;;;;;78.43;7.63;;;;;;;0.45;100.00;96829.66;4987547;28;20117;-55
2022/04/02 02:36:44;;;;;;;62.33;5.95;;;;;;;0.28;100.00;96830.84;4990336;28;20191;-55
2022/04/02 02:39:10;;;;;;;76.03;7.18;;;;;;;0.45;100.00;96834.78;4988347;28;20540;-55
2022/04/02 02:41:36;;;;;;;80.07;6.63;;;;;;;0.36;100.00;96828.13;4989985;28;20940;-56
2022/04/02 02:44:01;;;;;;;60.58;7.00;;;;;;;0.33;100.00;96830.72;4989211;28;20030;-55
2022/04/02 02:46:27;;;;;;;72.95;6.60;;;;;;;0.39;100.00;96833.19;4988929;28;20073;-54
2022/04/02 02:48:52;;;;;;;62.90;7.10;;;;;;;0.58;100.00;96833.66;4983889;28;20437;-54
2022/04/02 02:51:17;;;;;;;74.50;7.00;;;;;;;0.29;100.00;96829.09;4983121;28;20066;-55
2022/04/02 02:53:46;;;;;;;67.70;7.03;;;;;;;0.29;100.00;96831.66;4987543;28;20481;-55
2022/04/02 02:56:11;;;;;;;73.43;6.82;;;;;;;0.54;100.00;96832.03;4988101;28;20045;-56
2022/04/02 02:58:37;;;;;;;66.38;6.82;;;;;;;0.42;100.00;96838.25;4989528;28;20021;-56
2022/04/02 03:01:02;;;;;;;65.57;6.93;;;;;;;0.46;100.00;96833.91;4987049;28;20612;-56
2022/04/02 03:03:27;;;;;;;83.10;7.47;;;;;;;0.47;100.00;96831.31;4990010;28;20026;-55
2022/04/02 03:05:53;;;;;;;63.78;6.30;;;;;;;0.43;100.00;96834.81;4989009;28;20077;-56
2022/04/02 03:08:19;;;;;;;56.88;6.47;;;;;;;0.40;100.00;96832.31;4993140;28;20036;-54
2022/04/02 03:10:45;;;;;;;72.20;6.72;;;;;;;0.69;100.00;96838.59;4988446;28;20069;-57
2022/04/02 03:13:10;;;;;;;51.03;5.93;;;;;;;0.62;100.00;96834.44;4985751;28;20062;-54
2022/04/02 03:15:36;;;;;;;63.03;6.85;;;;;;;0.53;100.00;96833.78;4988004;28;20097;-55
2022/04/02 03:18:04;;;;;;;62.83;6.53;;;;;;;0.41;100.00;96841.69;4994576;28;20038;-56
2022/04/02 03:20:29;;;;;;;57.90;5.60;;;;;;;0.41;100.00;96836.56;4988835;28;20033;-57
2022/04/02 03:22:55;;;;;;;59.70;6.13;;;;;;;0.45;100.00;96842.50;4986098;28;20022;-57
2022/04/02 03:25:23;;;;;;;79.53;7.43;;;;;;;0.67;100.00;96843.75;4984632;28;20039;-55
2022/04/02 03:27:49;;;;;;;77.47;6.90;;;;;;;0.59;100.00;96840.50;4990242;28;20033;-57
2022/04/02 03:30:17;;;;;;;68.43;6.53;;;;;;;0.84;100.00;96840.00;4984338;28;20097;-55
2022/04/02 03:32:42;;;;;;;71.68;6.97;;;;;;;0.96;100.00;96840.56;4988669;28;20397;-56
2022/04/02 03:35:08;;;;;;;65.18;6.72;;;;;;;0.95;100.00;96841.44;4987819;28;20477;-57
2022/04/02 03:37:38;;;;;;;72.45;6.55;;;;;;;0.97;100.00;96841.41;4986119;28;20195;-55
2022/04/02 03:40:07;;;;;;;57.75;6.13;;;;;;;0.82;100.00;96850.28;4984652;28;20130;-56
2022/04/02 03:42:33;;;;;;;50.25;6.07;;;;;;;0.71;100.00;96841.97;4987167;28;20034;-56
2022/04/02 03:44:59;;;;;;;79.78;7.72;;;;;;;1.20;100.00;96840.91;4984643;28;20018;-56
2022/04/02 03:47:24;;;;;;;74.07;6.95;;;;;;;1.05;100.00;96838.66;4985704;28;20042;-57
2022/04/02 03:49:51;;;;;;;72.35;6.82;;;;;;;0.99;100.00;96849.91;4993055;28;20476;-55
2022/04/02 03:52:16;;;;;;;66.72;6.57;;;;;;;0.92;100.00;96849.22;4989450;28;20038;-56
2022/04/02 03:54:42;;;;;;;62.20;6.88;;;;;;;0.84;100.00;96852.81;4993239;28;20059;-54
2022/04/02 03:57:12;;;;;;;66.93;7.00;;;;;;;0.90;100.00;96845.84;4990081;28;20064;-55
2022/04/02 03:59:39;;;;;;;62.28;6.47;;;;;;;1.08;100.00;96847.16;4990432;28;20029;-55
2022/04/02 04:02:05;;;;;;;75.22;7.15;;;;;;;1.06;100.00;96846.34;4986800;28;20038;-57
2022/04/02 04:04:31;;;;;;;58.80;6.25;;;;;;;1.15;100.00;96845.31;4984911;28;20524;-55
2022/04/02 04:06:57;;;;;;;33.38;5.03;;;;;;;1.12;100.00;96851.38;4984200;28;20710;-57
2022/04/02 04:09:23;;;;;;;65.85;6.32;;;;;;;1.08;100.00;96854.03;4986663;28;20049;-56
2022/04/02 04:11:48;;;;;;;43.53;5.45;;;;;;;0.97;100.00;96856.81;4986324;28;20031;-55
2022/04/02 04:14:15;;;;;;;74.10;7.22;;;;;;;0.96;100.00;96860.28;4984800;28;20041;-57
2022/04/02 04:16:41;;;;;;;69.95;6.32;;;;;;;1.43;100.00;96853.22;4986609;28;20062;-56
2022/04/02 04:19:06;;;;;;;85.32;7.38;;;;;;;1.07;100.00;96862.63;4986943;28;20504;-55
2022/04/02 04:21:32;;;;;;;72.43;7.10;;;;;;;1.18;100.00;96858.09;4988357;28;20046;-55
2022/04/02 04:23:57;;;;;;;69.38;7.05;;;;;;;1.11;100.00;96864.25;4986579;28;20049;-54
2022/04/02 04:26:22;;;;;;;69.65;6.80;;;;;;;0.74;100.00;96870.16;4985411;28;20596;-56
2022/04/02 04:28:48;;;;;;;60.00;6.35;;;;;;;0.63;100.00;96872.09;4988309;28;20440;-55
2022/04/02 04:31:17;;;;;;;63.78;6.53;;;;;;;1.11;100.00;96875.34;4989885;28;20476;-56
2022/04/02 04:33:43;;;;;;;59.88;6.93;;;;;;;0.76;100.00;96873.53;4993250;28;20559;-56
2022/04/02 04:36:10;;;;;;;66.97;6.45;;;;;;;0.51;100.00;96870.56;4990603;28;20493;-56
2022/04/02 04:38:35;;;;;;;72.53;6.97;;;;;;;0.59;100.00;96879.00;4991881;28;20032;-56
2022/04/02 04:41:02;;;;;;;62.60;7.07;;;;;;;0.16;100.00;96888.28;4994523;28;20034;-55
2022/04/02 04:43:27;;;;;;;78.53;7.68;;;;;;;0.03;100.00;96889.38;4992494;28;20041;-55
2022/04/02 04:45:53;;;;;;;75.70;7.40;;;;;;;0.34;100.00;96886.28;4992411;28;20034;-55
2022/04/02 04:48:20;;;;;;;67.13;7.00;;;;;;;0.03;100.00;96898.81;4992239;28;20030;-56
2022/04/02 04:50:45;;;;;;;66.05;7.05;;;;;;;0.43;100.00;96891.25;4988521;28;20046;-56
2022/04/02 04:53:11;;;;;;;55.92;6.78;;;;;;;0.30;100.00;96893.19;4992632;28;20030;-56
2022/04/02 04:55:36;;;;;;;72.40;6.38;;;;;;;0.23;100.00;96893.34;4991850;28;20073;-57
2022/04/02 04:58:02;;;;;;;58.38;6.80;;;;;;;0.18;100.00;96896.84;4987532;28;20066;-55
2022/04/02 05:00:27;;;;;;;72.60;7.28;;;;;;;0.42;100.00;96894.69;4992277;28;20038;-57
2022/04/02 05:02:53;;;;;;;83.35;8.00;;;;;;;0.40;100.00;96905.84;4990457;28;20083;-57
2022/04/02 05:05:18;;;;;;;73.35;7.13;;;;;;;0.41;100.00;96910.97;4990242;28;20029;-56
2022/04/02 05:07:44;;;;;;;74.78;7.75;;;;;;;0.43;100.00;96906.66;4990223;28;20023;-55
2022/04/02 05:10:10;;;;;;;58.88;6.68;;;;;;;0.53;100.00;96908.19;4990311;28;20026;-55
2022/04/02 05:12:37;;;;;;;63.08;6.82;;;;;;;0.54;100.00;96907.28;4990829;28;20050;-56
2022/04/02 05:15:04;;;;;;;75.55;7.10;;;;;;;0.59;100.00;96907.22;4988074;28;20095;-55
2022/04/02 05:17:31;;;;;;;66.38;6.82;;;;;;;0.45;100.00;96910.03;4988685;28;20413;-58
2022/04/02 05:19:57;;;;;;;77.47;7.43;;;;;;;0.77;100.00;96906.00;4990729;28;20053;-56
2022/04/02 05:22:22;;;;;;;72.05;7.88;;;;;;;0.74;100.00;96906.06;4989282;28;20073;-56
2022/04/02 05:24:48;;;;;;;95.07;8.55;;;;;;;0.52;100.00;96921.88;4990244;28;20404;-57
2022/04/02 05:27:13;;;;;;;73.90;7.70;;;;;;;0.61;100.00;96926.00;4994078;28;20045;-55
2022/04/02 05:29:38;;;;;;;57.85;7.45;;;;;;;0.49;100.00;96932.19;4992679;28;20026;-56
2022/04/02 05:32:04;;;;;;;67.47;7.53;;;;;;;0.50;100.00;96928.75;4991296;28;20133;-56
2022/04/02 05:34:30;;;;;;;47.92;7.05;;;;;;;0.81;100.00;96928.19;4990131;28;20390;-55
2022/04/02 05:36:56;;;;;;;75.20;7.72;;;;;;;0.77;100.00;96923.97;4987333;28;20034;-55
2022/04/02 05:39:22;;;;;;;61.92;7.28;;;;;;;0.91;100.00;96934.81;4991352;28;20026;-56
2022/04/02 05:41:48;;;;;;;61.33;7.15;;;;;;;0.79;100.00;96937.63;4992250;28;20033;-56
2022/04/02 05:44:14;;;;;;;70.72;8.23;;;;;;;1.17;100.00;96935.19;4989245;28;20689;-55
2022/04/02 05:46:39;;;;;;;55.28;7.22;;;;;;;0.88;100.00;96941.72;4990121;28;20145;-55
2022/04/02 05:49:05;;;;;;;53.15;6.93;;;;;;;0.88;100.00;96945.16;4989237;28;20026;-56
2022/04/02 05:51:31;;;;;;;63.25;7.30;;;;;;;1.11;100.00;96943.84;4987586;28;20054;-55
2022/04/02 05:53:57;;;;;;;61.78;7.03;;;;;;;0.95;100.00;96946.72;4991741;28;20030;-56
2022/04/02 05:56:22;;;;;;;68.53;6.97;;;;;;;1.12;100.00;96948.09;4988114;28;20053;-55
2022/04/02 05:58:48;;;;;;;56.47;7.53;;;;;;;1.11;100.00;96949.81;4988196;28;20408;-57
2022/04/02 06:01:14;;;;;;;49.67;6.95;;;;;;;0.98;100.00;96945.81;4989946;28;20116;-56
2022/04/02 06:03:41;;;;;;;38.17;6.40;;;;;;;0.97;100.00;96949.25;4987524;28;20060;-56
2022/04/02 06:06:07;;;;;;;58.88;7.43;;;;;;;0.66;100.00;96957.56;4990323;28;20038;-55
2022/04/02 06:08:33;;;;;;;64.68;7.75;;;;;;;1.26;100.00;96956.38;4990618;28;20045;-57
2022/04/02 06:10:58;;;;;;;45.75;6.60;;;;;;;0.95;100.00;96956.97;4992456;28;20038;-56
2022/04/02 06:13:24;;;;;;;54.78;7.38;;;;;;;0.91;100.00;96964.78;4988193;28;20281;-56
2022/04/02 06:15:49;;;;;;;49.78;6.63;;;;;;;1.25;100.00;96966.66;4992060;28;20485;-57
2022/04/02 06:18:18;;;;;;;59.15;7.82;;;;;;;0.87;100.00;96971.69;4989662;28;20072;-56
2022/04/02 06:20:44;;;;;;;64.53;7.28;;;;;;;1.05;100.00;96972.19;4991157;28;20512;-55
2022/04/02 06:23:09;;;;;;;52.60;7.68;;;;;;;0.84;100.00;96978.59;4987102;28;20505;-55
2022/04/02 06:25:34;;;;;;;68.10;7.10;;;;;;;0.86;100.00;96982.81;4988691;28;20118;-57
2022/04/02 06:28:00;;;;;;;49.88;6.93;;;;;;;1.11;100.00;96988.34;4990059;28;20030;-57
2022/04/02 06:30:25;;;;;;;65.18;7.63;;;;;;;1.13;100.00;96985.75;4984985;28;20034;-56
2022/04/02 06:32:51;;;;;;;75.82;8.02;;;;;;;1.12;100.00;96994.31;4988219;28;20086;-56
2022/04/02 06:35:18;;;;;;;64.68;7.00;;;;;;;0.79;100.00;96991.53;4987361;28;20033;-56
2022/04/02 06:37:43;;;;;;;79.70;7.93;;;;;;;0.70;100.00;97002.81;4984557;28;20057;-55
2022/04/02 06:40:10;;;;;;;59.40;6.30;;;;;;;0.58;100.00;97003.84;4989581;28;20053;-55
2022/04/02 06:42:36;;;;;;;61.97;6.82;;;;;;;0.77;100.00;96999.28;4987999;28;20033;-55
2022/04/02 06:45:02;;;;;;;65.82;7.55;;;;;;;1.26;100.00;97001.78;4989322;28;20478;-55
2022/04/02 06:47:29;;;;;;;59.20;7.05;;;;;;;1.17;100.00;96997.66;4987844;28;20062;-55
2022/04/02 06:49:56;;;;;;;78.50;8.02;;;;;;;1.06;100.00;96999.59;4989854;28;20108;-56
2022/04/02 06:52:21;;;;;;;58.58;6.50;;;;;;;0.50;100.00;97010.03;4988276;28;20132;-55
2022/04/02 06:54:47;;;;;;;83.72;7.55;;;;;;;1.32;100.00;97001.63;4988118;28;20035;-55
2022/04/02 06:57:22;;;;;;;58.55;6.70;;;;;;;1.35;100.00;97017.84;4985747;28;20444;-54
2022/04/02 06:59:48;;;;;;;61.80;6.00;;;;;;;0.64;100.00;97012.34;4990990;28;20110;-53
2022/04/02 07:02:16;;;;;;;57.95;6.57;;;;;;;1.33;100.00;97027.31;4986052;28;20034;-55
2022/04/02 07:04:42;;;;;;;72.07;6.95;;;;;;;1.24;100.00;97024.06;4992371;28;20030;-56
2022/04/02 07:07:08;;;;;;;61.58;7.05;;;;;;;1.28;100.00;97021.41;4985868;28;20034;-54
2022/04/02 07:09:34;;;;;;;38.10;6.00;;;;;;;1.84;100.00;97015.97;4989795;28;20042;-55
2022/04/02 07:11:59;;;;;;;60.03;6.22;;;;;;;1.47;100.00;97029.59;4990173;28;20705;-54
2022/04/02 07:14:24;;;;;;;74.03;6.63;;;;;;;1.01;100.00;97037.34;4988386;28;20392;-53
2022/04/02 07:16:50;;;;;;;45.40;5.97;;;;;;;0.76;100.00;97027.53;4987597;28;20034;-54
2022/04/02 07:19:20;;;;;;;79.75;7.18;;;;;;;1.10;100.00;97039.75;4986302;28;20495;-57
2022/04/02 07:21:46;;;;;;;61.72;6.50;;;;;;;1.20;100.00;97043.84;4987006;28;20030;-56
2022/04/02 07:24:12;;;;;;;80.60;7.03;;;;;;;1.45;100.00;97044.22;4988957;28;20352;-54
2022/04/02 07:26:38;;;;;;;61.30;6.05;;;;;;;1.25;100.00;97052.31;4987602;28;20037;-55
2022/04/02 07:29:04;;;;;;;69.47;6.90;;;;;;;1.23;100.00;97059.19;4992511;28;20057;-54
2022/04/02 07:31:29;;;;;;;113.40;8.80;;;;;;;1.97;100.00;97056.81;4985022;28;20069;-54
2022/04/02 07:33:55;;;;;;;57.13;6.50;;;;;;;1.59;100.00;97061.91;4985413;28;20034;-57
2022/04/02 07:36:36;;;;;;;71.93;6.93;;;;;;;1.77;100.00;97065.00;4986801;28;20559;-55
2022/04/02 07:39:04;;;;;;;53.55;6.47;;;;;;;1.96;100.00;97068.84;4987994;28;20022;-55
2022/04/02 07:41:44;;;;;;;60.70;6.05;;;;;;;1.72;100.00;97067.66;4986044;28;20053;-57
2022/04/02 07:44:41;;;;;;;69.65;7.07;;;;;;;1.49;100.00;97070.66;4986223;28;20140;-56
2022/04/02 07:47:12;;;;;;;55.45;6.13;;;;;;;1.54;100.00;97076.56;4971995;28;20511;-55
2022/04/02 07:49:40;;;;;;;52.08;6.35;;;;;;;1.92;100.00;97080.94;4984851;28;20058;-56
2022/04/02 07:52:08;;;;;;;66.35;6.85;;;;;;;1.58;100.00;97085.94;4987477;28;20104;-55
2022/04/02 07:54:39;;;;;;;74.45;7.35;;;;;;;2.33;100.00;97091.19;4985748;28;20038;-56
2022/04/02 07:57:07;;;;;;;87.45;8.05;;;;;;;2.02;100.00;97086.75;5001984;28;20035;-56
2022/04/02 07:59:38;;;;;;;59.08;7.43;;;;;;;1.51;100.00;97100.63;5004287;28;20018;-56
2022/04/02 08:02:04;;;;;;;75.57;8.32;;;;;;;1.90;100.00;97099.84;5003983;28;20603;-57
2022/04/02 08:04:30;;;;;;;69.10;7.82;;;;;;;1.52;100.00;97097.16;5003753;28;20029;-56
2022/04/02 08:06:58;;;;;;;62.47;7.40;;;;;;;1.95;100.00;97107.44;5007268;28;20064;-56
2022/04/02 08:09:25;;;;;;;67.40;8.00;;;;;;;2.11;100.00;97108.81;5011073;28;20041;-56
2022/04/02 08:11:51;;;;;;;77.03;9.15;;;;;;;12.58;100.00;97113.41;5009159;28;20035;-55
2022/04/02 08:14:22;;;;;;;85.45;13.82;;;;;;;47.32;22.68;97037.94;5010761;28;20522;-56
2022/04/02 08:16:48;;;;;;;24.65;6.80;;;;;;;1.79;100.00;97078.66;5011256;28;20045;-57
2022/04/02 08:19:19;;;;;;;31.08;8.30;;;;;;;2.56;100.00;97092.41;5014321;28;20029;-56
2022/04/02 08:21:44;;;;;;;35.00;8.10;;;;;;;1.99;100.00;97086.78;5009908;28;20044;-55
2022/04/02 08:24:10;;;;;;;29.95;8.18;;;;;;;1.39;100.00;97100.00;5008309;28;20033;-56
2022/04/02 08:26:56;;;;;;;34.13;8.65;;;;;;;3.73;100.00;97104.84;5006655;28;20408;-58
2022/04/02 08:29:27;;;;;;;28.27;8.70;;;;;;;3.22;100.00;97104.47;5009248;28;20026;-57
2022/04/02 08:32:26;;;;;;;31.60;9.37;;;;;;;2.47;100.00;97103.75;5011197;28;20041;-58
2022/04/02 08:35:02;;;;;;;29.95;7.63;;;;;;;2.39;100.00;97111.66;5002361;28;20506;-57
2022/04/02 08:37:44;;;;;;;29.80;8.02;;;;;;;3.04;100.00;97115.25;5009693;28;20058;-57
2022/04/02 08:40:34;;;;;;;28.05;8.93;;;;;;;3.26;100.00;97118.97;5009590;28;20030;-56
2022/04/02 08:43:31;;;;;;;21.65;7.40;;;;;;;2.64;100.00;97121.38;5011883;28;20037;-55
2022/04/02 08:46:27;;;;;;;51.47;8.82;;;;;;;3.31;100.00;97118.88;5007577;28;20036;-55
2022/04/02 08:48:58;;;;;;;33.38;8.02;;;;;;;2.94;100.00;97130.09;5011333;28;20022;-57
2022/04/02 08:51:34;;;;;;;26.80;8.60;;;;;;;3.98;100.00;97141.94;5009536;28;20116;-57
2022/04/02 08:54:12;;;;;;;34.90;9.38;;;;;;;2.94;100.00;97142.13;5009419;28;20055;-58
2022/04/02 08:56:44;;;;;;;25.75;8.88;;;;;;;2.95;100.00;97146.41;5003662;28;20034;-58
2022/04/02 08:59:20;;;;;;;41.87;10.07;;;;;;;3.28;100.00;97150.69;5007702;28;20096;-58
2022/04/02 09:01:52;;;;;;;31.15;9.68;;;;;;;3.71;100.00;97156.47;5009417;28;20393;-58
2022/04/02 09:04:26;;;;;;;30.38;9.32;;;;;;;3.55;100.00;97156.03;5012083;28;20092;-58
2022/04/02 09:07:13;;;;;;;23.30;7.53;;;;;;;3.64;100.00;97168.69;5005512;28;20041;-58
2022/04/02 09:09:50;;;;;;;24.08;8.52;;;;;;;2.48;100.00;97168.06;5010167;28;20037;-57
2022/04/02 09:12:27;;;;;;;29.48;8.93;;;;;;;3.92;100.00;97165.38;5012576;28;20979;-57
2022/04/02 09:15:12;;;;;;;29.83;7.13;;;;;;;3.75;100.00;97167.53;5011157;28;20030;-56
2022/04/02 09:18:01;;;;;;;32.38;9.15;;;;;;;3.63;100.00;97172.16;4983315;28;20057;-56
2022/04/02 09:20:56;;;;;;;29.98;8.80;;;;;;;4.34;100.00;97175.34;4985083;28;20116;-62
2022/04/02 09:23:21;;;;;;;27.88;7.97;;;;;;;4.42;100.00;97172.53;4982764;28;20029;-57
2022/04/02 09:26:20;;;;;;;21.38;8.45;;;;;;;4.38;100.00;97176.09;4980617;28;20524;-57
2022/04/02 09:29:10;;;;;;;24.98;8.75;;;;;;;4.44;100.00;97181.91;4983765;28;20165;-59
2022/04/02 09:31:54;;;;;;;22.15;8.13;;;;;;;4.08;100.00;97178.69;4982521;28;20050;-58
2022/04/02 09:35:11;;;;;;;26.38;8.80;;;;;;;4.17;100.00;97187.88;4987430;28;20559;-58
2022/04/02 09:37:45;;;;;;;19.95;7.93;;;;;;;3.83;100.00;97188.81;4975007;28;20112;-58
2022/04/02 09:40:11;;;;;;;22.42;8.60;;;;;;;4.63;100.00;97192.56;4983561;28;20041;-58
2022/04/02 09:42:46;;;;;;;23.98;8.25;;;;;;;4.16;100.00;97192.22;4987343;28;20026;-59
2022/04/02 09:45:14;;;;;;;21.83;8.43;;;;;;;4.45;100.00;97198.28;4985026;28;20636;-58
2022/04/02 09:47:51;;;;;;;29.75;9.27;;;;;;;4.88;100.00;97198.72;4987129;28;20045;-57
2022/04/02 09:50:24;;;;;;;21.88;7.95;;;;;;;4.32;100.00;97207.25;4988852;28;20102;-57
2022/04/02 09:53:11;;;;;;;22.00;8.23;;;;;;;4.05;100.00;97202.00;4993170;28;20030;-58
2022/04/02 09:56:14;;;;;;;24.10;8.38;;;;;;;3.92;100.00;97198.06;4985308;28;20054;-59
2022/04/02 09:58:46;;;;;;;;;;;;;;;3.03;100.00;97201.16;4992534;28;20027;-56
2022/04/02 10:01:27;;;;;;;23.63;8.03;;;;;;;3.69;100.00;97196.09;4989094;28;19967;-56
2022/04/02 10:04:15;;;;;;;23.60;8.68;;;;;;;4.15;100.00;97208.56;4992276;28;20389;-55
2022/04/02 10:06:42;;;;;;;26.73;8.68;;;;;;;4.21;100.00;97210.16;4987329;28;20041;-55
2022/04/02 10:09:15;;;;;;;22.35;8.27;;;;;;;3.72;100.00;97211.50;4984871;28;20108;-54
2022/04/02 10:11:43;;;;;;;28.88;9.15;;;;;;;3.35;100.00;97212.44;4990189;28;20089;-57
2022/04/02 10:14:09;;;;;;;26.10;8.98;;;;;;;3.61;100.00;97219.50;4988985;28;20026;-53
2022/04/02 10:16:35;;;;;;;22.77;7.40;;;;;;;3.84;100.00;97213.72;4987735;28;20089;-56
2022/04/02 10:19:07;;;;;;;25.50;9.15;;;;;;;4.20;100.00;97229.09;4989776;28;20022;-55
2022/04/02 10:21:35;;;;;;;30.00;9.20;;;;;;;3.95;100.00;97219.47;4989287;28;20030;-55
2022/04/02 10:24:21;;;;;;;32.13;10.30;;;;;;;3.42;100.00;97232.03;4983482;28;20469;-55
2022/04/02 10:26:50;;;;;;;21.48;7.38;;;;;;;3.01;100.00;97233.84;4985970;28;20093;-57
2022/04/02 10:29:30;;;;;;;29.20;9.45;;;;;;;3.37;100.00;97231.28;4991494;28;20029;-57
2022/04/02 10:32:14;;;;;;;29.92;9.55;;;;;;;3.95;100.00;97229.78;4987833;28;20027;-56
2022/04/02 10:34:54;;;;;;;27.80;9.43;;;;;;;4.26;100.00;97236.66;4990146;28;20041;-55
2022/04/02 10:37:24;;;;;;;26.77;9.20;;;;;;;4.52;100.00;97241.13;4989490;28;20042;-57
2022/04/02 10:40:05;;;;;;;27.02;9.77;;;;;;;3.36;100.00;97234.72;4990513;28;20033;-55
2022/04/02 10:42:39;;;;;;;28.90;9.68;;;;;;;4.35;100.00;97239.00;4990566;28;20034;-56
2022/04/02 10:45:11;;;;;;;27.23;8.45;;;;;;;3.69;100.00;97237.34;4985961;28;20113;-57
2022/04/02 10:47:48;;;;;;;31.55;9.48;;;;;;;4.73;100.00;97242.22;4986621;28;20477;-57
2022/04/02 10:50:18;;;;;;;34.25;10.25;;;;;;;4.39;100.00;97235.44;4984569;28;20030;-56
2022/04/02 10:52:46;;;;;;;26.27;8.52;;;;;;;4.47;100.00;97236.94;4988134;28;20018;-56
2022/04/02 10:55:15;;;;;;;31.42;9.40;;;;;;;4.51;100.00;97231.66;4986932;28;20113;-56
2022/04/02 10:57:41;;;;;;;31.35;9.07;;;;;;;5.52;100.00;97247.53;4982825;28;20018;-55
2022/04/02 11:00:08;;;;;;;41.38;10.32;;;;;;;4.93;100.00;97235.59;4979742;28;20019;-56
2022/04/02 11:02:45;;;;;;;32.17;9.27;;;;;;;4.36;100.00;97237.28;4986102;28;20119;-56
2022/04/02 11:05:16;;;;;;;24.23;8.70;;;;;;;5.91;100.00;97245.31;4982984;28;20126;-55
2022/04/02 11:07:48;;;;;;;29.47;9.13;;;;;;;5.35;100.00;97248.91;4982540;28;20451;-55
2022/04/02 11:10:21;;;;;;;36.70;9.00;;;;;;;3.61;100.00;97251.28;4986510;28;20384;-55
2022/04/02 11:12:49;;;;;;;;;;;;;;;4.49;100.00;97245.50;4983124;28;20025;-57
2022/04/02 11:15:21;;;;;;;29.02;8.75;;;;;;;4.61;100.00;97251.19;4980353;28;19941;-56
2022/04/02 11:17:47;;;;;;;;;;;;;;;5.54;100.00;97249.16;4988581;28;20647;-56
2022/04/02 11:20:16;;;;;;;19.50;8.20;;;;;;;5.32;100.00;97249.00;4985328;28;19976;-56
2022/04/02 11:22:51;;;;;;;26.80;8.75;;;;;;;5.50;100.00;97257.91;4985464;28;20032;-56
2022/04/02 11:25:31;;;;;;;31.38;10.07;;;;;;;5.97;100.00;97255.53;4984297;28;20036;-58
2022/04/02 11:28:05;;;;;;;21.52;8.45;;;;;;;4.85;100.00;97258.22;4979228;28;20030;-58
2022/04/02 11:30:33;;;;;;;27.17;8.90;;;;;;;4.04;100.00;97257.94;4984530;28;20038;-58
2022/04/02 11:33:14;;;;;;;27.67;9.05;;;;;;;5.60;100.00;97264.47;4985206;28;20022;-57
2022/04/02 11:35:51;;;;;;;29.40;8.82;;;;;;;5.56;100.00;97262.88;4984510;28;20029;-58